sensor_id;sensor_type;location;lat;lon;timestamp;P1;durP1;ratioP1;P2;durP2;ratioP2
4112;SDS011;2070;51.042;7.056;2023-02-13T00:00:46;16.80;;;7.73;;
4112;SDS011;2070;51.042;7.056;2023-02-13T00:03:11;15.83;;;7.80;;
4112;SDS011;2070;51.042;7.056;2023-02-13T00:05:36;12.67;;;7.17;;
4112;SDS011;2070;51.042;7.056;2023-02-13T00:08:02;17.00;;;6.83;;
4112;SDS011;2070;51.042;7.056;2023-02-13T00:10:27;14.90;;;6.80;;
4112;SDS011;2070;51.042;7.056;2023-02-13T00:12:52;13.00;;;6.77;;
4112;SDS011;2070;51.042;7.056;2023-02-13T00:15:17;13.93;;;7.60;;
4112;SDS011;2070;51.042;7.056;2023-02-13T00:17:42;20.53;;;7.70;;
4112;SDS011;2070;51.042;7.056;2023-02-13T00:20:08;12.97;;;6.93;;
4112;SDS011;2070;51.042;7.056;2023-02-13T00:22:34;14.50;;;6.77;;
4112;SDS011;2070;51.042;7.056;2023-02-13T00:25:00;14.90;;;7.30;;
4112;SDS011;2070;51.042;7.056;2023-02-13T00:27:26;15.57;;;7.70;;
4112;SDS011;2070;51.042;7.056;2023-02-13T00:29:51;13.87;;;7.70;;
4112;SDS011;2070;51.042;7.056;2023-02-13T00:32:16;13.53;;;8.13;;
4112;SDS011;2070;51.042;7.056;2023-02-13T00:34:41;13.60;;;8.23;;
4112;SDS011;2070;51.042;7.056;2023-02-13T00:37:08;22.07;;;7.80;;
4112;SDS011;2070;51.042;7.056;2023-02-13T00:39:33;13.67;;;6.37;;
4112;SDS011;2070;51.042;7.056;2023-02-13T00:41:58;16.07;;;7.03;;
4112;SDS011;2070;51.042;7.056;2023-02-13T00:44:23;13.13;;;6.73;;
4112;SDS011;2070;51.042;7.056;2023-02-13T00:46:48;14.70;;;6.80;;
4112;SDS011;2070;51.042;7.056;2023-02-13T00:49:13;13.73;;;6.63;;
4112;SDS011;2070;51.042;7.056;2023-02-13T00:51:39;13.23;;;7.60;;
4112;SDS011;2070;51.042;7.056;2023-02-13T00:54:04;17.83;;;7.77;;
4112;SDS011;2070;51.042;7.056;2023-02-13T00:56:29;19.07;;;8.00;;
4112;SDS011;2070;51.042;7.056;2023-02-13T00:58:54;16.33;;;7.13;;
4112;SDS011;2070;51.042;7.056;2023-02-13T01:01:20;14.03;;;6.93;;
4112;SDS011;2070;51.042;7.056;2023-02-13T01:03:45;21.03;;;7.80;;
4112;SDS011;2070;51.042;7.056;2023-02-13T01:06:10;16.53;;;7.47;;
4112;SDS011;2070;51.042;7.056;2023-02-13T01:08:37;15.97;;;7.73;;
4112;SDS011;2070;51.042;7.056;2023-02-13T01:11:02;11.50;;;6.40;;
4112;SDS011;2070;51.042;7.056;2023-02-13T01:13:28;13.10;;;7.50;;
4112;SDS011;2070;51.042;7.056;2023-02-13T01:15:53;15.40;;;7.60;;
4112;SDS011;2070;51.042;7.056;2023-02-13T01:18:18;28.40;;;7.30;;
4112;SDS011;2070;51.042;7.056;2023-02-13T01:20:44;14.43;;;7.03;;
4112;SDS011;2070;51.042;7.056;2023-02-13T01:23:10;17.40;;;8.30;;
4112;SDS011;2070;51.042;7.056;2023-02-13T01:25:38;15.80;;;6.77;;
4112;SDS011;2070;51.042;7.056;2023-02-13T01:28:03;15.60;;;7.23;;
4112;SDS011;2070;51.042;7.056;2023-02-13T01:30:28;11.90;;;6.83;;
4112;SDS011;2070;51.042;7.056;2023-02-13T01:32:54;14.77;;;7.77;;
4112;SDS011;2070;51.042;7.056;2023-02-13T01:35:19;13.57;;;6.50;;
4112;SDS011;2070;51.042;7.056;2023-02-13T01:37:44;9.97;;;5.60;;
4112;SDS011;2070;51.042;7.056;2023-02-13T01:40:10;18.40;;;7.90;;
4112;SDS011;2070;51.042;7.056;2023-02-13T01:42:36;18.20;;;7.80;;
4112;SDS011;2070;51.042;7.056;2023-02-13T01:45:24;11.97;;;6.53;;
4112;SDS011;2070;51.042;7.056;2023-02-13T01:47:48;9.93;;;6.17;;
4112;SDS011;2070;51.042;7.056;2023-02-13T01:50:20;12.63;;;6.50;;
4112;SDS011;2070;51.042;7.056;2023-02-13T01:52:50;13.10;;;6.30;;
4112;SDS011;2070;51.042;7.056;2023-02-13T01:55:16;22.73;;;7.03;;
4112;SDS011;2070;51.042;7.056;2023-02-13T01:57:42;12.00;;;6.60;;
4112;SDS011;2070;51.042;7.056;2023-02-13T02:00:13;9.07;;;5.30;;
4112;SDS011;2070;51.042;7.056;2023-02-13T02:02:40;14.50;;;7.30;;
4112;SDS011;2070;51.042;7.056;2023-02-13T02:05:06;13.33;;;7.40;;
4112;SDS011;2070;51.042;7.056;2023-02-13T02:07:32;13.03;;;6.47;;
4112;SDS011;2070;51.042;7.056;2023-02-13T02:10:00;11.07;;;5.63;;
4112;SDS011;2070;51.042;7.056;2023-02-13T02:12:35;12.80;;;6.43;;
4112;SDS011;2070;51.042;7.056;2023-02-13T02:15:02;11.60;;;6.70;;
4112;SDS011;2070;51.042;7.056;2023-02-13T02:17:27;14.43;;;6.57;;
4112;SDS011;2070;51.042;7.056;2023-02-13T02:25:05;9.63;;;5.63;;
4112;SDS011;2070;51.042;7.056;2023-02-13T02:40:48;10.23;;;5.33;;
4112;SDS011;2070;51.042;7.056;2023-02-13T02:43:39;11.87;;;6.03;;
4112;SDS011;2070;51.042;7.056;2023-02-13T02:46:10;8.63;;;4.60;;
4112;SDS011;2070;51.042;7.056;2023-02-13T02:48:47;9.73;;;5.80;;
4112;SDS011;2070;51.042;7.056;2023-02-13T02:51:40;9.20;;;5.60;;
4112;SDS011;2070;51.042;7.056;2023-02-13T02:54:16;13.77;;;6.97;;
4112;SDS011;2070;51.042;7.056;2023-02-13T02:57:26;13.43;;;5.13;;
4112;SDS011;2070;51.042;7.056;2023-02-13T02:59:50;10.93;;;5.90;;
4112;SDS011;2070;51.042;7.056;2023-02-13T03:02:35;8.17;;;5.07;;
4112;SDS011;2070;51.042;7.056;2023-02-13T03:05:24;10.27;;;6.50;;
4112;SDS011;2070;51.042;7.056;2023-02-13T03:08:09;8.60;;;5.70;;
4112;SDS011;2070;51.042;7.056;2023-02-13T03:10:35;10.57;;;6.10;;
4112;SDS011;2070;51.042;7.056;2023-02-13T03:13:41;7.77;;;5.20;;
4112;SDS011;2070;51.042;7.056;2023-02-13T03:16:11;10.27;;;5.40;;
4112;SDS011;2070;51.042;7.056;2023-02-13T03:18:58;11.20;;;6.07;;
4112;SDS011;2070;51.042;7.056;2023-02-13T03:28:03;10.40;;;6.60;;
4112;SDS011;2070;51.042;7.056;2023-02-13T03:38:57;13.90;;;7.07;;
4112;SDS011;2070;51.042;7.056;2023-02-13T03:41:22;14.10;;;6.60;;
4112;SDS011;2070;51.042;7.056;2023-02-13T03:46:14;13.13;;;7.80;;
4112;SDS011;2070;51.042;7.056;2023-02-13T03:48:40;13.33;;;6.83;;
4112;SDS011;2070;51.042;7.056;2023-02-13T03:51:28;12.37;;;6.33;;
4112;SDS011;2070;51.042;7.056;2023-02-13T03:53:56;12.70;;;7.50;;
4112;SDS011;2070;51.042;7.056;2023-02-13T03:56:23;12.33;;;6.23;;
4112;SDS011;2070;51.042;7.056;2023-02-13T03:59:09;11.90;;;7.10;;
4112;SDS011;2070;51.042;7.056;2023-02-13T04:01:47;16.40;;;8.07;;
4112;SDS011;2070;51.042;7.056;2023-02-13T04:04:22;14.07;;;8.13;;
4112;SDS011;2070;51.042;7.056;2023-02-13T04:06:51;13.40;;;7.77;;
4112;SDS011;2070;51.042;7.056;2023-02-13T04:09:17;12.60;;;7.10;;
4112;SDS011;2070;51.042;7.056;2023-02-13T04:11:47;15.07;;;8.50;;
4112;SDS011;2070;51.042;7.056;2023-02-13T04:17:05;14.73;;;8.20;;
4112;SDS011;2070;51.042;7.056;2023-02-13T04:19:31;16.63;;;8.77;;
4112;SDS011;2070;51.042;7.056;2023-02-13T04:21:57;19.13;;;7.67;;
4112;SDS011;2070;51.042;7.056;2023-02-13T04:24:23;16.60;;;8.50;;
4112;SDS011;2070;51.042;7.056;2023-02-13T04:26:49;14.87;;;7.77;;
4112;SDS011;2070;51.042;7.056;2023-02-13T04:29:14;10.80;;;7.37;;
4112;SDS011;2070;51.042;7.056;2023-02-13T04:31:39;15.53;;;7.40;;
4112;SDS011;2070;51.042;7.056;2023-02-13T04:34:04;14.17;;;8.30;;
4112;SDS011;2070;51.042;7.056;2023-02-13T04:36:29;17.20;;;7.33;;
4112;SDS011;2070;51.042;7.056;2023-02-13T04:38:55;14.60;;;7.97;;
4112;SDS011;2070;51.042;7.056;2023-02-13T04:41:20;9.63;;;6.77;;
4112;SDS011;2070;51.042;7.056;2023-02-13T04:43:45;12.47;;;7.17;;
4112;SDS011;2070;51.042;7.056;2023-02-13T04:46:10;12.63;;;7.23;;
4112;SDS011;2070;51.042;7.056;2023-02-13T04:48:35;12.70;;;7.43;;
4112;SDS011;2070;51.042;7.056;2023-02-13T04:51:01;14.30;;;7.93;;
4112;SDS011;2070;51.042;7.056;2023-02-13T04:53:26;18.80;;;8.47;;
4112;SDS011;2070;51.042;7.056;2023-02-13T04:55:51;13.43;;;7.40;;
4112;SDS011;2070;51.042;7.056;2023-02-13T04:58:17;14.27;;;8.90;;
4112;SDS011;2070;51.042;7.056;2023-02-13T05:00:42;17.53;;;8.07;;
4112;SDS011;2070;51.042;7.056;2023-02-13T05:03:08;17.97;;;8.47;;
4112;SDS011;2070;51.042;7.056;2023-02-13T05:05:34;14.10;;;7.00;;
4112;SDS011;2070;51.042;7.056;2023-02-13T05:07:59;13.03;;;7.67;;
4112;SDS011;2070;51.042;7.056;2023-02-13T05:10:24;15.07;;;7.70;;
4112;SDS011;2070;51.042;7.056;2023-02-13T05:12:50;16.63;;;8.60;;
4112;SDS011;2070;51.042;7.056;2023-02-13T05:15:15;15.73;;;8.30;;
4112;SDS011;2070;51.042;7.056;2023-02-13T05:17:43;12.30;;;8.60;;
4112;SDS011;2070;51.042;7.056;2023-02-13T05:20:09;12.33;;;6.70;;
4112;SDS011;2070;51.042;7.056;2023-02-13T05:22:34;9.70;;;7.40;;
4112;SDS011;2070;51.042;7.056;2023-02-13T05:25:18;14.87;;;7.40;;
4112;SDS011;2070;51.042;7.056;2023-02-13T05:27:43;12.70;;;7.60;;
4112;SDS011;2070;51.042;7.056;2023-02-13T05:30:09;18.00;;;7.10;;
4112;SDS011;2070;51.042;7.056;2023-02-13T05:32:34;11.30;;;6.53;;
4112;SDS011;2070;51.042;7.056;2023-02-13T05:34:59;16.43;;;7.83;;
4112;SDS011;2070;51.042;7.056;2023-02-13T05:37:24;13.50;;;8.83;;
4112;SDS011;2070;51.042;7.056;2023-02-13T05:39:49;15.50;;;7.80;;
4112;SDS011;2070;51.042;7.056;2023-02-13T05:42:15;11.23;;;6.93;;
4112;SDS011;2070;51.042;7.056;2023-02-13T05:44:40;14.57;;;8.03;;
4112;SDS011;2070;51.042;7.056;2023-02-13T05:47:05;12.77;;;6.97;;
4112;SDS011;2070;51.042;7.056;2023-02-13T05:49:30;13.27;;;7.33;;
4112;SDS011;2070;51.042;7.056;2023-02-13T05:51:55;18.33;;;8.10;;
4112;SDS011;2070;51.042;7.056;2023-02-13T05:54:21;14.23;;;8.30;;
4112;SDS011;2070;51.042;7.056;2023-02-13T05:56:46;12.90;;;7.07;;
4112;SDS011;2070;51.042;7.056;2023-02-13T05:59:11;20.63;;;8.67;;
4112;SDS011;2070;51.042;7.056;2023-02-13T06:01:36;12.67;;;8.13;;
4112;SDS011;2070;51.042;7.056;2023-02-13T06:04:01;11.50;;;7.43;;
4112;SDS011;2070;51.042;7.056;2023-02-13T06:06:27;15.33;;;8.17;;
4112;SDS011;2070;51.042;7.056;2023-02-13T06:08:52;11.60;;;6.77;;
4112;SDS011;2070;51.042;7.056;2023-02-13T06:11:17;14.40;;;8.53;;
4112;SDS011;2070;51.042;7.056;2023-02-13T06:13:43;14.23;;;8.90;;
4112;SDS011;2070;51.042;7.056;2023-02-13T06:16:08;14.83;;;7.53;;
4112;SDS011;2070;51.042;7.056;2023-02-13T06:18:34;16.60;;;10.33;;
4112;SDS011;2070;51.042;7.056;2023-02-13T06:20:59;13.80;;;8.80;;
4112;SDS011;2070;51.042;7.056;2023-02-13T06:23:25;13.03;;;7.77;;
4112;SDS011;2070;51.042;7.056;2023-02-13T06:25:50;20.53;;;9.17;;
4112;SDS011;2070;51.042;7.056;2023-02-13T06:28:15;11.40;;;7.83;;
4112;SDS011;2070;51.042;7.056;2023-02-13T06:30:40;20.20;;;9.20;;
4112;SDS011;2070;51.042;7.056;2023-02-13T06:33:05;17.07;;;9.50;;
4112;SDS011;2070;51.042;7.056;2023-02-13T06:35:31;18.00;;;8.83;;
4112;SDS011;2070;51.042;7.056;2023-02-13T06:37:56;14.33;;;7.97;;
4112;SDS011;2070;51.042;7.056;2023-02-13T06:40:21;16.80;;;8.90;;
4112;SDS011;2070;51.042;7.056;2023-02-13T06:42:46;14.37;;;7.97;;
4112;SDS011;2070;51.042;7.056;2023-02-13T06:45:12;14.77;;;8.53;;
4112;SDS011;2070;51.042;7.056;2023-02-13T06:47:40;14.00;;;8.07;;
4112;SDS011;2070;51.042;7.056;2023-02-13T06:50:06;18.67;;;9.43;;
4112;SDS011;2070;51.042;7.056;2023-02-13T06:52:31;15.17;;;9.33;;
4112;SDS011;2070;51.042;7.056;2023-02-13T06:54:56;17.60;;;9.50;;
4112;SDS011;2070;51.042;7.056;2023-02-13T06:57:22;18.47;;;9.40;;
4112;SDS011;2070;51.042;7.056;2023-02-13T06:59:47;14.17;;;8.63;;
4112;SDS011;2070;51.042;7.056;2023-02-13T07:02:12;15.07;;;9.53;;
4112;SDS011;2070;51.042;7.056;2023-02-13T07:04:37;22.40;;;10.43;;
4112;SDS011;2070;51.042;7.056;2023-02-13T07:07:03;17.90;;;10.20;;
4112;SDS011;2070;51.042;7.056;2023-02-13T07:09:29;17.57;;;7.80;;
4112;SDS011;2070;51.042;7.056;2023-02-13T07:11:55;19.27;;;9.37;;
4112;SDS011;2070;51.042;7.056;2023-02-13T07:14:20;15.50;;;8.60;;
4112;SDS011;2070;51.042;7.056;2023-02-13T07:16:45;17.10;;;9.20;;
4112;SDS011;2070;51.042;7.056;2023-02-13T07:19:10;17.30;;;9.97;;
4112;SDS011;2070;51.042;7.056;2023-02-13T07:21:35;29.70;;;11.23;;
4112;SDS011;2070;51.042;7.056;2023-02-13T07:24:02;15.03;;;9.00;;
4112;SDS011;2070;51.042;7.056;2023-02-13T07:26:27;19.23;;;10.37;;
4112;SDS011;2070;51.042;7.056;2023-02-13T07:28:53;18.63;;;7.97;;
4112;SDS011;2070;51.042;7.056;2023-02-13T07:31:18;20.93;;;8.97;;
4112;SDS011;2070;51.042;7.056;2023-02-13T07:33:46;19.43;;;9.27;;
4112;SDS011;2070;51.042;7.056;2023-02-13T07:36:12;14.87;;;8.73;;
4112;SDS011;2070;51.042;7.056;2023-02-13T07:38:37;18.47;;;8.37;;
4112;SDS011;2070;51.042;7.056;2023-02-13T07:41:02;20.87;;;10.70;;
4112;SDS011;2070;51.042;7.056;2023-02-13T07:43:28;17.43;;;8.80;;
4112;SDS011;2070;51.042;7.056;2023-02-13T07:45:55;16.90;;;8.37;;
4112;SDS011;2070;51.042;7.056;2023-02-13T07:48:22;27.27;;;10.40;;
4112;SDS011;2070;51.042;7.056;2023-02-13T07:50:47;19.40;;;9.57;;
4112;SDS011;2070;51.042;7.056;2023-02-13T07:53:12;17.13;;;9.87;;
4112;SDS011;2070;51.042;7.056;2023-02-13T07:55:38;23.67;;;8.77;;
4112;SDS011;2070;51.042;7.056;2023-02-13T07:58:03;14.50;;;7.50;;
4112;SDS011;2070;51.042;7.056;2023-02-13T08:00:28;14.57;;;7.03;;
4112;SDS011;2070;51.042;7.056;2023-02-13T08:02:54;12.53;;;6.40;;
4112;SDS011;2070;51.042;7.056;2023-02-13T08:05:19;8.53;;;5.90;;
4112;SDS011;2070;51.042;7.056;2023-02-13T08:07:44;10.97;;;7.77;;
4112;SDS011;2070;51.042;7.056;2023-02-13T08:10:10;11.10;;;7.90;;
4112;SDS011;2070;51.042;7.056;2023-02-13T08:12:54;12.20;;;6.87;;
4112;SDS011;2070;51.042;7.056;2023-02-13T08:15:20;12.20;;;7.20;;
4112;SDS011;2070;51.042;7.056;2023-02-13T08:17:45;13.00;;;7.13;;
4112;SDS011;2070;51.042;7.056;2023-02-13T08:20:10;10.40;;;6.83;;
4112;SDS011;2070;51.042;7.056;2023-02-13T08:22:36;9.67;;;6.40;;
4112;SDS011;2070;51.042;7.056;2023-02-13T08:25:02;8.73;;;5.60;;
4112;SDS011;2070;51.042;7.056;2023-02-13T08:27:27;9.37;;;5.97;;
4112;SDS011;2070;51.042;7.056;2023-02-13T08:29:54;7.73;;;5.57;;
4112;SDS011;2070;51.042;7.056;2023-02-13T08:32:19;9.80;;;6.97;;
4112;SDS011;2070;51.042;7.056;2023-02-13T08:34:44;7.33;;;5.70;;
4112;SDS011;2070;51.042;7.056;2023-02-13T08:37:09;10.57;;;6.03;;
4112;SDS011;2070;51.042;7.056;2023-02-13T08:39:35;8.10;;;6.47;;
4112;SDS011;2070;51.042;7.056;2023-02-13T08:42:00;10.33;;;6.93;;
4112;SDS011;2070;51.042;7.056;2023-02-13T08:44:25;8.17;;;6.27;;
4112;SDS011;2070;51.042;7.056;2023-02-13T08:46:50;8.20;;;5.40;;
4112;SDS011;2070;51.042;7.056;2023-02-13T08:49:15;11.10;;;6.87;;
4112;SDS011;2070;51.042;7.056;2023-02-13T08:51:41;8.83;;;5.20;;
4112;SDS011;2070;51.042;7.056;2023-02-13T08:54:06;6.90;;;5.43;;
4112;SDS011;2070;51.042;7.056;2023-02-13T08:56:31;9.20;;;7.03;;
4112;SDS011;2070;51.042;7.056;2023-02-13T08:58:56;9.50;;;5.60;;
4112;SDS011;2070;51.042;7.056;2023-02-13T09:01:22;10.30;;;6.90;;
4112;SDS011;2070;51.042;7.056;2023-02-13T09:03:48;10.60;;;6.90;;
4112;SDS011;2070;51.042;7.056;2023-02-13T09:06:13;11.40;;;6.13;;
4112;SDS011;2070;51.042;7.056;2023-02-13T09:08:38;8.30;;;5.53;;
4112;SDS011;2070;51.042;7.056;2023-02-13T09:11:04;7.30;;;5.10;;
4112;SDS011;2070;51.042;7.056;2023-02-13T09:13:31;9.50;;;6.37;;
4112;SDS011;2070;51.042;7.056;2023-02-13T09:15:58;11.00;;;6.70;;
4112;SDS011;2070;51.042;7.056;2023-02-13T09:18:24;10.47;;;6.00;;
4112;SDS011;2070;51.042;7.056;2023-02-13T09:20:49;9.67;;;5.20;;
4112;SDS011;2070;51.042;7.056;2023-02-13T09:23:14;9.30;;;6.00;;
4112;SDS011;2070;51.042;7.056;2023-02-13T09:25:40;7.23;;;5.90;;
4112;SDS011;2070;51.042;7.056;2023-02-13T09:28:05;7.10;;;4.53;;
4112;SDS011;2070;51.042;7.056;2023-02-13T09:30:30;6.37;;;5.43;;
4112;SDS011;2070;51.042;7.056;2023-02-13T09:32:55;8.20;;;5.57;;
4112;SDS011;2070;51.042;7.056;2023-02-13T09:35:21;13.30;;;6.93;;
4112;SDS011;2070;51.042;7.056;2023-02-13T09:37:46;6.93;;;4.80;;
4112;SDS011;2070;51.042;7.056;2023-02-13T09:40:15;8.17;;;6.13;;
4112;SDS011;2070;51.042;7.056;2023-02-13T09:42:42;9.47;;;6.40;;
4112;SDS011;2070;51.042;7.056;2023-02-13T09:45:07;7.27;;;5.30;;
4112;SDS011;2070;51.042;7.056;2023-02-13T09:47:36;5.50;;;4.80;;
4112;SDS011;2070;51.042;7.056;2023-02-13T09:50:05;10.37;;;6.00;;
4112;SDS011;2070;51.042;7.056;2023-02-13T09:52:32;5.83;;;5.07;;
4112;SDS011;2070;51.042;7.056;2023-02-13T09:54:59;8.90;;;5.50;;
4112;SDS011;2070;51.042;7.056;2023-02-13T09:57:34;18.50;;;7.53;;
4112;SDS011;2070;51.042;7.056;2023-02-13T10:00:20;8.30;;;6.17;;
4112;SDS011;2070;51.042;7.056;2023-02-13T10:05:42;7.53;;;5.67;;
4112;SDS011;2070;51.042;7.056;2023-02-13T10:08:23;8.17;;;5.27;;
4112;SDS011;2070;51.042;7.056;2023-02-13T10:10:51;14.07;;;8.17;;
4112;SDS011;2070;51.042;7.056;2023-02-13T10:16:15;9.00;;;5.70;;
4112;SDS011;2070;51.042;7.056;2023-02-13T10:18:47;8.83;;;6.03;;
4112;SDS011;2070;51.042;7.056;2023-02-13T10:21:13;9.47;;;5.83;;
4112;SDS011;2070;51.042;7.056;2023-02-13T10:23:47;8.80;;;5.53;;
4112;SDS011;2070;51.042;7.056;2023-02-13T10:26:21;8.30;;;4.80;;
4112;SDS011;2070;51.042;7.056;2023-02-13T10:28:55;7.23;;;4.97;;
4112;SDS011;2070;51.042;7.056;2023-02-13T10:31:41;7.93;;;4.60;;
4112;SDS011;2070;51.042;7.056;2023-02-13T10:34:10;9.97;;;5.73;;
4112;SDS011;2070;51.042;7.056;2023-02-13T10:36:36;6.87;;;4.93;;
4112;SDS011;2070;51.042;7.056;2023-02-13T10:52:03;6.87;;;4.73;;
4112;SDS011;2070;51.042;7.056;2023-02-13T10:57:30;6.17;;;5.17;;
4112;SDS011;2070;51.042;7.056;2023-02-13T11:02:32;9.60;;;4.63;;
4112;SDS011;2070;51.042;7.056;2023-02-13T11:05:09;7.20;;;4.77;;
4112;SDS011;2070;51.042;7.056;2023-02-13T11:07:37;4.47;;;3.63;;
4112;SDS011;2070;51.042;7.056;2023-02-13T11:10:04;7.80;;;4.37;;
4112;SDS011;2070;51.042;7.056;2023-02-13T11:12:33;10.50;;;4.80;;
4112;SDS011;2070;51.042;7.056;2023-02-13T11:17:24;5.40;;;4.43;;
4112;SDS011;2070;51.042;7.056;2023-02-13T11:19:52;7.60;;;4.07;;
4112;SDS011;2070;51.042;7.056;2023-02-13T11:22:28;8.50;;;4.63;;
4112;SDS011;2070;51.042;7.056;2023-02-13T11:24:55;5.27;;;3.90;;
4112;SDS011;2070;51.042;7.056;2023-02-13T11:27:32;9.97;;;3.83;;
4112;SDS011;2070;51.042;7.056;2023-02-13T11:29:59;8.20;;;4.20;;
4112;SDS011;2070;51.042;7.056;2023-02-13T11:32:27;6.00;;;4.37;;
4112;SDS011;2070;51.042;7.056;2023-02-13T11:34:53;7.90;;;4.47;;
4112;SDS011;2070;51.042;7.056;2023-02-13T11:37:25;5.20;;;3.40;;
4112;SDS011;2070;51.042;7.056;2023-02-13T11:39:52;8.77;;;5.07;;
4112;SDS011;2070;51.042;7.056;2023-02-13T11:42:20;9.43;;;4.50;;
4112;SDS011;2070;51.042;7.056;2023-02-13T11:44:49;7.40;;;3.60;;
4112;SDS011;2070;51.042;7.056;2023-02-13T11:47:15;10.10;;;4.93;;
4112;SDS011;2070;51.042;7.056;2023-02-13T11:49:44;7.00;;;3.80;;
4112;SDS011;2070;51.042;7.056;2023-02-13T11:52:21;7.60;;;4.47;;
4112;SDS011;2070;51.042;7.056;2023-02-13T11:54:46;5.87;;;3.80;;
4112;SDS011;2070;51.042;7.056;2023-02-13T11:59:44;5.00;;;3.67;;
4112;SDS011;2070;51.042;7.056;2023-02-13T12:04:40;7.20;;;4.10;;
4112;SDS011;2070;51.042;7.056;2023-02-13T12:09:41;7.40;;;3.57;;
4112;SDS011;2070;51.042;7.056;2023-02-13T12:12:09;8.30;;;4.63;;
4112;SDS011;2070;51.042;7.056;2023-02-13T12:14:41;10.33;;;6.23;;
4112;SDS011;2070;51.042;7.056;2023-02-13T12:17:11;14.33;;;3.57;;
4112;SDS011;2070;51.042;7.056;2023-02-13T12:19:39;8.03;;;3.73;;
4112;SDS011;2070;51.042;7.056;2023-02-13T12:39:34;3.90;;;2.87;;
4112;SDS011;2070;51.042;7.056;2023-02-13T12:55:17;5.13;;;3.67;;
4112;SDS011;2070;51.042;7.056;2023-02-13T13:05:59;11.40;;;3.77;;
4112;SDS011;2070;51.042;7.056;2023-02-13T13:08:30;3.80;;;3.33;;
4112;SDS011;2070;51.042;7.056;2023-02-13T13:13:48;3.53;;;2.83;;
4112;SDS011;2070;51.042;7.056;2023-02-13T13:16:36;5.97;;;3.57;;
4112;SDS011;2070;51.042;7.056;2023-02-13T13:19:12;8.43;;;2.37;;
4112;SDS011;2070;51.042;7.056;2023-02-13T13:27:24;5.67;;;3.50;;
4112;SDS011;2070;51.042;7.056;2023-02-13T13:29:54;5.00;;;3.23;;
4112;SDS011;2070;51.042;7.056;2023-02-13T13:32:20;6.40;;;3.00;;
4112;SDS011;2070;51.042;7.056;2023-02-13T13:34:45;4.80;;;3.07;;
4112;SDS011;2070;51.042;7.056;2023-02-13T13:44:58;4.70;;;2.83;;
4112;SDS011;2070;51.042;7.056;2023-02-13T13:49:57;3.23;;;1.57;;
4112;SDS011;2070;51.042;7.056;2023-02-13T13:54:49;3.10;;;2.10;;
4112;SDS011;2070;51.042;7.056;2023-02-13T13:57:18;2.60;;;1.50;;
4112;SDS011;2070;51.042;7.056;2023-02-13T14:07:38;4.50;;;2.33;;
4112;SDS011;2070;51.042;7.056;2023-02-13T14:10:05;3.30;;;1.43;;
4112;SDS011;2070;51.042;7.056;2023-02-13T14:14:56;1.97;;;1.57;;
4112;SDS011;2070;51.042;7.056;2023-02-13T14:20:25;1.93;;;1.57;;
4112;SDS011;2070;51.042;7.056;2023-02-13T14:22:52;1.67;;;1.20;;
4112;SDS011;2070;51.042;7.056;2023-02-13T14:25:24;2.03;;;1.53;;
4112;SDS011;2070;51.042;7.056;2023-02-13T14:28:35;3.10;;;1.70;;
4112;SDS011;2070;51.042;7.056;2023-02-13T14:30:35;3.17;;;1.40;;
4112;SDS011;2070;51.042;7.056;2023-02-13T14:33:02;4.73;;;1.93;;
4112;SDS011;2070;51.042;7.056;2023-02-13T14:35:30;4.57;;;1.40;;
4112;SDS011;2070;51.042;7.056;2023-02-13T14:37:57;21.73;;;1.83;;
4112;SDS011;2070;51.042;7.056;2023-02-13T14:43:04;5.40;;;1.77;;
4112;SDS011;2070;51.042;7.056;2023-02-13T14:45:32;3.43;;;1.50;;
4112;SDS011;2070;51.042;7.056;2023-02-13T14:48:01;3.10;;;1.53;;
4112;SDS011;2070;51.042;7.056;2023-02-13T14:50:39;2.90;;;1.73;;
4112;SDS011;2070;51.042;7.056;2023-02-13T14:53:13;3.77;;;2.23;;
4112;SDS011;2070;51.042;7.056;2023-02-13T14:55:40;1.53;;;0.93;;
4112;SDS011;2070;51.042;7.056;2023-02-13T14:58:07;3.17;;;1.73;;
4112;SDS011;2070;51.042;7.056;2023-02-13T15:03:56;4.00;;;1.20;;
4112;SDS011;2070;51.042;7.056;2023-02-13T15:05:57;4.17;;;1.63;;
4112;SDS011;2070;51.042;7.056;2023-02-13T15:08:24;2.27;;;1.40;;
4112;SDS011;2070;51.042;7.056;2023-02-13T15:10:51;5.17;;;1.40;;
4112;SDS011;2070;51.042;7.056;2023-02-13T15:13:37;2.23;;;1.47;;
4112;SDS011;2070;51.042;7.056;2023-02-13T15:16:07;2.67;;;0.87;;
4112;SDS011;2070;51.042;7.056;2023-02-13T15:18:35;2.00;;;1.10;;
4112;SDS011;2070;51.042;7.056;2023-02-13T15:21:03;4.43;;;2.00;;
4112;SDS011;2070;51.042;7.056;2023-02-13T15:23:29;2.40;;;1.23;;
4112;SDS011;2070;51.042;7.056;2023-02-13T15:25:59;2.80;;;1.50;;
4112;SDS011;2070;51.042;7.056;2023-02-13T15:28:25;3.77;;;1.63;;
4112;SDS011;2070;51.042;7.056;2023-02-13T15:30:58;2.20;;;1.53;;
4112;SDS011;2070;51.042;7.056;2023-02-13T15:33:25;2.70;;;1.83;;
4112;SDS011;2070;51.042;7.056;2023-02-13T15:36:00;1.93;;;1.43;;
4112;SDS011;2070;51.042;7.056;2023-02-13T15:38:29;3.30;;;1.20;;
4112;SDS011;2070;51.042;7.056;2023-02-13T15:41:00;1.60;;;1.40;;
4112;SDS011;2070;51.042;7.056;2023-02-13T15:43:33;1.50;;;1.03;;
4112;SDS011;2070;51.042;7.056;2023-02-13T15:46:01;0.90;;;0.63;;
4112;SDS011;2070;51.042;7.056;2023-02-13T15:48:27;2.77;;;1.33;;
4112;SDS011;2070;51.042;7.056;2023-02-13T15:50:53;2.80;;;2.13;;
4112;SDS011;2070;51.042;7.056;2023-02-13T15:53:18;3.20;;;1.97;;
4112;SDS011;2070;51.042;7.056;2023-02-13T15:55:54;1.40;;;1.30;;
4112;SDS011;2070;51.042;7.056;2023-02-13T15:58:19;2.93;;;1.43;;
4112;SDS011;2070;51.042;7.056;2023-02-13T16:00:44;3.37;;;1.77;;
4112;SDS011;2070;51.042;7.056;2023-02-13T16:03:14;1.60;;;1.50;;
4112;SDS011;2070;51.042;7.056;2023-02-13T16:05:40;1.63;;;1.20;;
4112;SDS011;2070;51.042;7.056;2023-02-13T16:10:49;1.60;;;1.10;;
4112;SDS011;2070;51.042;7.056;2023-02-13T16:13:15;2.23;;;1.00;;
4112;SDS011;2070;51.042;7.056;2023-02-13T16:15:41;3.00;;;1.20;;
4112;SDS011;2070;51.042;7.056;2023-02-13T16:18:10;1.53;;;1.10;;
4112;SDS011;2070;51.042;7.056;2023-02-13T16:20:41;4.60;;;1.70;;
4112;SDS011;2070;51.042;7.056;2023-02-13T16:23:12;7.50;;;2.70;;
4112;SDS011;2070;51.042;7.056;2023-02-13T16:25:39;6.73;;;1.97;;
4112;SDS011;2070;51.042;7.056;2023-02-13T16:28:20;1.73;;;1.10;;
4112;SDS011;2070;51.042;7.056;2023-02-13T16:30:59;2.27;;;1.50;;
4112;SDS011;2070;51.042;7.056;2023-02-13T16:33:28;5.07;;;2.30;;
4112;SDS011;2070;51.042;7.056;2023-02-13T16:35:55;2.90;;;1.30;;
4112;SDS011;2070;51.042;7.056;2023-02-13T16:40:46;5.45;;;1.95;;
4112;SDS011;2070;51.042;7.056;2023-02-13T16:46:08;2.40;;;1.47;;
4112;SDS011;2070;51.042;7.056;2023-02-13T16:48:33;1.70;;;1.20;;
4112;SDS011;2070;51.042;7.056;2023-02-13T16:50:59;3.83;;;1.30;;
4112;SDS011;2070;51.042;7.056;2023-02-13T16:53:24;5.87;;;1.90;;
4112;SDS011;2070;51.042;7.056;2023-02-13T16:55:55;3.83;;;2.17;;
4112;SDS011;2070;51.042;7.056;2023-02-13T16:58:20;8.53;;;2.03;;
4112;SDS011;2070;51.042;7.056;2023-02-13T17:00:48;5.83;;;2.57;;
4112;SDS011;2070;51.042;7.056;2023-02-13T17:03:13;10.53;;;2.33;;
4112;SDS011;2070;51.042;7.056;2023-02-13T17:05:39;4.43;;;1.93;;
4112;SDS011;2070;51.042;7.056;2023-02-13T17:08:04;6.20;;;1.70;;
4112;SDS011;2070;51.042;7.056;2023-02-13T17:12:56;2.93;;;1.70;;
4112;SDS011;2070;51.042;7.056;2023-02-13T17:15:23;2.50;;;1.47;;
4112;SDS011;2070;51.042;7.056;2023-02-13T17:17:48;4.13;;;1.83;;
4112;SDS011;2070;51.042;7.056;2023-02-13T17:20:19;2.37;;;1.63;;
4112;SDS011;2070;51.042;7.056;2023-02-13T17:22:45;2.80;;;2.00;;
4112;SDS011;2070;51.042;7.056;2023-02-13T17:25:15;2.73;;;2.20;;
4112;SDS011;2070;51.042;7.056;2023-02-13T17:27:40;6.50;;;2.23;;
4112;SDS011;2070;51.042;7.056;2023-02-13T17:30:07;4.17;;;2.60;;
4112;SDS011;2070;51.042;7.056;2023-02-13T17:32:32;2.60;;;1.97;;
4112;SDS011;2070;51.042;7.056;2023-02-13T17:34:57;5.07;;;2.20;;
4112;SDS011;2070;51.042;7.056;2023-02-13T17:37:24;2.97;;;2.67;;
4112;SDS011;2070;51.042;7.056;2023-02-13T17:39:50;11.97;;;3.73;;
4112;SDS011;2070;51.042;7.056;2023-02-13T17:42:16;2.73;;;2.20;;
4112;SDS011;2070;51.042;7.056;2023-02-13T17:44:42;2.73;;;2.40;;
4112;SDS011;2070;51.042;7.056;2023-02-13T17:47:07;12.43;;;2.17;;
4112;SDS011;2070;51.042;7.056;2023-02-13T17:49:33;6.43;;;1.70;;
4112;SDS011;2070;51.042;7.056;2023-02-13T17:51:58;3.83;;;1.90;;
4112;SDS011;2070;51.042;7.056;2023-02-13T17:54:23;2.03;;;1.83;;